Crown Of Scandinavia — OXRA6 — position and weather

sailwx.info

Track history (hours):
 
Tides and Currents Weather Stations Pressure Air Temp Water Temp Dewpoint Dewpoint Depression Visibility Wind Speed Wind Dir Waves Ship Positions

Crown Of Scandinavia

Last reported at 2019-Nov-11 21:30 UTC. Time now 2019-Nov-11 22:57 UTC.
Position N 58°20' E 011°01'.

Length 171 m; draft 6.3 m.

Type: Ship. MMSI: 219592000.

Date/timePositionNaut miles runAvg speedWind from/ knotsBaromVisibWave heightAir tempDewpointWater temp
2019-Nov-11 21:30N 58°20' E 011°01'815.9
2019-Nov-11 21:00N 58°27' E 010°55'4217.0
2019-Nov-11 18:30N 59°09' E 010°38'1918.8
2019-Nov-11 17:30N 59°27' E 010°33'918.2
2019-Nov-11 17:00N 59°36' E 010°38'714.6
2019-Nov-11 16:30N 59°43' E 010°34'12 8.0
2019-Nov-11 15:00N 59°54' E 010°45'0 0.0
2019-Nov-11 13:00N 59°54' E 010°45'0 0.0
2019-Nov-11 12:00N 59°54' E 010°45'0 0.0
2019-Nov-11 10:30N 59°54' E 010°45'0 0.0
2019-Nov-11 09:00N 59°54' E 010°45'3511.6
2019-Nov-11 06:01N 59°20' E 010°36'815.7
2019-Nov-11 05:31N 59°12' E 010°39'3115.6
2019-Nov-11 03:30N 58°41' E 010°37'1716.4
2019-Nov-11 02:30N 58°25' E 010°42'817.0
2019-Nov-11 02:01N 58°17' E 010°48'1616.5
2019-Nov-11 01:01N 58°02' E 010°58'816.3
2019-Nov-11 00:31N 57°54' E 011°04'1616.4
2019-Nov-10 23:31N 57°39' E 011°17'1616.4
2019-Nov-10 22:31N 57°24' E 011°29'2516.7
2019-Nov-10 21:00N 57°00' E 011°46'7915.9
2019-Nov-10 16:01N 55°48' E 012°43'7 1.0
2019-Nov-10 09:01N 55°42' E 012°36'11914.9
2019-Nov-10 01:00N 57°35' E 011°26'2516.6
2019-Nov-09 23:30N 57°57' E 011°04'917.1
2019-Nov-09 23:01N 58°04' E 010°56'10916.8
2019-Nov-09 16:30N 59°53' E 010°41'2 2.2
2019-Nov-09 15:29N 59°54' E 010°45'0 0.0
2019-Nov-09 10:29N 59°54' E 010°45'0 0.0
2019-Nov-09 09:59N 59°54' E 010°45'41 9.2
2019-Nov-09 05:30N 59°13' E 010°38'3115.4
2019-Nov-09 03:30N 58°42' E 010°38'815.6
2019-Nov-09 03:00N 58°34' E 010°41'1616.2
2019-Nov-09 02:00N 58°19' E 010°47'2416.2
2019-Nov-09 00:30N 57°56' E 011°02'1616.4
2019-Nov-08 23:31N 57°41' E 011°13'2516.8
2019-Nov-08 22:00N 57°18' E 011°33'917.6
2019-Nov-08 21:31N 57°10' E 011°39'917.3
2019-Nov-08 21:00N 57°02' E 011°45'5917.0
2019-Nov-08 17:30N 56°08' E 012°31'1615.9
2019-Nov-08 16:30N 55°54' E 012°44'13 2.3
2019-Nov-08 11:00N 55°42' E 012°36'0 0.0
2019-Nov-08 09:30N 55°42' E 012°36'0 0.0
2019-Nov-08 09:00N 55°42' E 012°36'0 0.7
2019-Nov-08 08:31N 55°42' E 012°36'1912.9
2019-Nov-08 07:00N 56°02' E 012°40'11815.7
2019-Nov-07 23:30N 57°47' E 011°03'816.7
2019-Nov-07 23:01N 57°54' E 010°54'2616.9
2019-Nov-07 21:30N 58°18' E 010°39'9616.1
2019-Nov-07 15:30N 59°54' E 010°45'0 0.0
2019-Nov-07 14:28N 59°54' E 010°45'0 0.0
2019-Nov-07 11:58N 59°54' E 010°45'0 0.0
2019-Nov-07 10:58N 59°54' E 010°45'13 3.9
2019-Nov-07 07:30N 59°42' E 010°36'6115.3
2019-Nov-07 03:30N 58°41' E 010°46'815.5
2019-Nov-07 03:00N 58°33' E 010°50'815.6
2019-Nov-07 02:30N 58°26' E 010°55'8916.1
2019-Nov-06 21:01N 57°04' E 011°60'8415.3
2019-Nov-06 15:31N 55°42' E 012°36'0 0.9
2019-Nov-06 15:00N 55°42' E 012°36'0 0.0
2019-Nov-06 14:30N 55°42' E 012°36'0 0.0
2019-Nov-06 14:00N 55°42' E 012°36'0 0.0
2019-Nov-06 13:30N 55°42' E 012°36'0 0.1
2019-Nov-06 08:30N 55°42' E 012°36'2311.7
2019-Nov-06 06:30N 56°06' E 012°33'7215.7
2019-Nov-06 01:57N 57°14' E 011°52'3216.5
2019-Nov-06 00:00N 57°39' E 011°16'2516.5
2019-Nov-05 22:30N 57°58' E 010°47'6716.9
2019-Nov-05 18:30N 59°06' E 010°37'918.0
2019-Nov-05 18:00N 59°15' E 010°37'918.6
2019-Nov-05 17:30N 59°24' E 010°33'3112.3
2019-Nov-05 15:00N 59°54' E 010°45'0 0.0
2019-Nov-05 13:00N 59°54' E 010°45'0 0.0
2019-Nov-05 11:30N 59°54' E 010°45'0 0.0
2019-Nov-05 11:00N 59°54' E 010°45'0 0.1
2019-Nov-05 08:30N 59°54' E 010°44'3514.0
2019-Nov-05 06:00N 59°19' E 010°36'3915.7
2019-Nov-05 03:30N 58°40' E 010°38'4916.4
2019-Nov-05 00:30N 57°53' E 011°04'816.8
2019-Nov-05 00:00N 57°45' E 011°09'1717.1
2019-Nov-04 23:00N 57°30' E 011°24'115 8.8
2019-Nov-04 09:55N 55°42' E 012°36'11112.4
2019-Nov-04 01:00N 57°28' E 011°35'1716.7
2019-Nov-04 00:00N 57°41' E 011°15'4016.0
2019-Nov-03 21:30N 58°15' E 010°35'816.6
2019-Nov-03 21:00N 58°23' E 010°33'7117.7
2019-Nov-03 17:00N 59°33' E 010°37'2110.4
2019-Nov-03 15:00N 59°54' E 010°45'0 0.0
2019-Nov-03 14:30N 59°54' E 010°45'0 0.0
2019-Nov-03 13:30N 59°54' E 010°45'0 0.0
2019-Nov-03 10:00N 59°54' E 010°45'7 3.5
2019-Nov-03 08:00N 59°49' E 010°35'2114.3
2019-Nov-03 06:31N 59°28' E 010°34'815.4
2019-Nov-03 06:01N 59°20' E 010°36'7115.7
2019-Nov-03 01:30N 58°11' E 011°05'5515.8
2019-Nov-02 22:00N 57°20' E 011°45'816.1
2019-Nov-02 21:30N 57°13' E 011°52'6515.9
2019-Nov-02 17:27N 56°11' E 012°28'30 4.0
2019-Nov-02 10:00N 55°42' E 012°36'0 0.0
2019-Nov-02 09:00N 55°42' E 012°36'2 3.1
2019-Nov-02 08:30N 55°43' E 012°38'1514.7
2019-Nov-02 07:30N 55°58' E 012°40'2315.3
2019-Nov-02 06:00N 56°14' E 012°11'6616.6
2019-Nov-02 02:00N 57°16' E 011°29'816.6
2019-Nov-02 01:30N 57°24' E 011°25'816.0
2019-Nov-02 01:00N 57°32' E 011°19'816.6
2019-Nov-02 00:30N 57°39' E 011°13'816.7
2019-Nov-02 00:00N 57°47' E 011°08'816.8
2019-Nov-01 23:30N 57°55' E 011°03'816.9
2019-Nov-01 23:00N 58°03' E 010°57'917.1
2019-Nov-01 22:30N 58°11' E 010°51'816.5
2019-Nov-01 22:00N 58°19' E 010°46'  
Track history (hours):
 
Tides and Currents Weather Stations Pressure Air Temp Water Temp Dewpoint Dewpoint Depression Visibility Wind Speed Wind Dir Waves Ship Positions

Crown Of Scandinavia

Last reported at 2019-Nov-11 21:30 UTC. Time now 2019-Nov-11 22:57 UTC.
Position N 58°20' E 011°01'.

Length 171 m; draft 6.3 m.

Type: Ship. MMSI: 219592000.

Date/timePositionNaut miles runAvg speedWind from/ knotsBaromVisibWave heightAir tempDewpointWater temp
2019-Nov-11 21:30N 58°20' E 011°01'815.9
2019-Nov-11 21:00N 58°27' E 010°55'4217.0
2019-Nov-11 18:30N 59°09' E 010°38'1918.8
2019-Nov-11 17:30N 59°27' E 010°33'918.2
2019-Nov-11 17:00N 59°36' E 010°38'714.6
2019-Nov-11 16:30N 59°43' E 010°34'12 8.0
2019-Nov-11 15:00N 59°54' E 010°45'0 0.0
2019-Nov-11 13:00N 59°54' E 010°45'0 0.0
2019-Nov-11 12:00N 59°54' E 010°45'0 0.0
2019-Nov-11 10:30N 59°54' E 010°45'0 0.0
2019-Nov-11 09:00N 59°54' E 010°45'3511.6
2019-Nov-11 06:01N 59°20' E 010°36'815.7
2019-Nov-11 05:31N 59°12' E 010°39'3115.6
2019-Nov-11 03:30N 58°41' E 010°37'1716.4
2019-Nov-11 02:30N 58°25' E 010°42'817.0
2019-Nov-11 02:01N 58°17' E 010°48'1616.5
2019-Nov-11 01:01N 58°02' E 010°58'816.3
2019-Nov-11 00:31N 57°54' E 011°04'1616.4
2019-Nov-10 23:31N 57°39' E 011°17'1616.4
2019-Nov-10 22:31N 57°24' E 011°29'2516.7
2019-Nov-10 21:00N 57°00' E 011°46'7915.9
2019-Nov-10 16:01N 55°48' E 012°43'7 1.0
2019-Nov-10 09:01N 55°42' E 012°36'11914.9
2019-Nov-10 01:00N 57°35' E 011°26'2516.6
2019-Nov-09 23:30N 57°57' E 011°04'917.1
2019-Nov-09 23:01N 58°04' E 010°56'10916.8
2019-Nov-09 16:30N 59°53' E 010°41'2 2.2
2019-Nov-09 15:29N 59°54' E 010°45'0 0.0
2019-Nov-09 10:29N 59°54' E 010°45'0 0.0
2019-Nov-09 09:59N 59°54' E 010°45'41 9.2
2019-Nov-09 05:30N 59°13' E 010°38'3115.4
2019-Nov-09 03:30N 58°42' E 010°38'815.6
2019-Nov-09 03:00N 58°34' E 010°41'1616.2
2019-Nov-09 02:00N 58°19' E 010°47'2416.2
2019-Nov-09 00:30N 57°56' E 011°02'1616.4
2019-Nov-08 23:31N 57°41' E 011°13'2516.8
2019-Nov-08 22:00N 57°18' E 011°33'917.6
2019-Nov-08 21:31N 57°10' E 011°39'917.3
2019-Nov-08 21:00N 57°02' E 011°45'5917.0
2019-Nov-08 17:30N 56°08' E 012°31'1615.9
2019-Nov-08 16:30N 55°54' E 012°44'13 2.3
2019-Nov-08 11:00N 55°42' E 012°36'0 0.0
2019-Nov-08 09:30N 55°42' E 012°36'0 0.0
2019-Nov-08 09:00N 55°42' E 012°36'0 0.7
2019-Nov-08 08:31N 55°42' E 012°36'1912.9
2019-Nov-08 07:00N 56°02' E 012°40'11815.7
2019-Nov-07 23:30N 57°47' E 011°03'816.7
2019-Nov-07 23:01N 57°54' E 010°54'2616.9
2019-Nov-07 21:30N 58°18' E 010°39'9616.1
2019-Nov-07 15:30N 59°54' E 010°45'0 0.0
2019-Nov-07 14:28N 59°54' E 010°45'0 0.0
2019-Nov-07 11:58N 59°54' E 010°45'0 0.0
2019-Nov-07 10:58N 59°54' E 010°45'13 3.9
2019-Nov-07 07:30N 59°42' E 010°36'6115.3
2019-Nov-07 03:30N 58°41' E 010°46'815.5
2019-Nov-07 03:00N 58°33' E 010°50'815.6
2019-Nov-07 02:30N 58°26' E 010°55'8916.1
2019-Nov-06 21:01N 57°04' E 011°60'8415.3
2019-Nov-06 15:31N 55°42' E 012°36'0 0.9
2019-Nov-06 15:00N 55°42' E 012°36'0 0.0
2019-Nov-06 14:30N 55°42' E 012°36'0 0.0
2019-Nov-06 14:00N 55°42' E 012°36'0 0.0
2019-Nov-06 13:30N 55°42' E 012°36'0 0.1
2019-Nov-06 08:30N 55°42' E 012°36'2311.7
2019-Nov-06 06:30N 56°06' E 012°33'7215.7
2019-Nov-06 01:57N 57°14' E 011°52'3216.5
2019-Nov-06 00:00N 57°39' E 011°16'2516.5
2019-Nov-05 22:30N 57°58' E 010°47'6716.9
2019-Nov-05 18:30N 59°06' E 010°37'918.0
2019-Nov-05 18:00N 59°15' E 010°37'918.6
2019-Nov-05 17:30N 59°24' E 010°33'3112.3
2019-Nov-05 15:00N 59°54' E 010°45'0 0.0
2019-Nov-05 13:00N 59°54' E 010°45'0 0.0
2019-Nov-05 11:30N 59°54' E 010°45'0 0.0
2019-Nov-05 11:00N 59°54' E 010°45'0 0.1
2019-Nov-05 08:30N 59°54' E 010°44'3514.0
2019-Nov-05 06:00N 59°19' E 010°36'3915.7
2019-Nov-05 03:30N 58°40' E 010°38'4916.4
2019-Nov-05 00:30N 57°53' E 011°04'816.8
2019-Nov-05 00:00N 57°45' E 011°09'1717.1
2019-Nov-04 23:00N 57°30' E 011°24'115 8.8
2019-Nov-04 09:55N 55°42' E 012°36'11112.4
2019-Nov-04 01:00N 57°28' E 011°35'1716.7
2019-Nov-04 00:00N 57°41' E 011°15'4016.0
2019-Nov-03 21:30N 58°15' E 010°35'816.6
2019-Nov-03 21:00N 58°23' E 010°33'7117.7
2019-Nov-03 17:00N 59°33' E 010°37'2110.4
2019-Nov-03 15:00N 59°54' E 010°45'0 0.0
2019-Nov-03 14:30N 59°54' E 010°45'0 0.0
2019-Nov-03 13:30N 59°54' E 010°45'0 0.0
2019-Nov-03 10:00N 59°54' E 010°45'7 3.5
2019-Nov-03 08:00N 59°49' E 010°35'2114.3
2019-Nov-03 06:31N 59°28' E 010°34'815.4
2019-Nov-03 06:01N 59°20' E 010°36'7115.7
2019-Nov-03 01:30N 58°11' E 011°05'5515.8
2019-Nov-02 22:00N 57°20' E 011°45'816.1
2019-Nov-02 21:30N 57°13' E 011°52'6515.9
2019-Nov-02 17:27N 56°11' E 012°28'30 4.0
2019-Nov-02 10:00N 55°42' E 012°36'0 0.0
2019-Nov-02 09:00N 55°42' E 012°36'2 3.1
2019-Nov-02 08:30N 55°43' E 012°38'1514.7
2019-Nov-02 07:30N 55°58' E 012°40'2315.3
2019-Nov-02 06:00N 56°14' E 012°11'6616.6
2019-Nov-02 02:00N 57°16' E 011°29'816.6
2019-Nov-02 01:30N 57°24' E 011°25'816.0
2019-Nov-02 01:00N 57°32' E 011°19'816.6
2019-Nov-02 00:30N 57°39' E 011°13'816.7
2019-Nov-02 00:00N 57°47' E 011°08'816.8
2019-Nov-01 23:30N 57°55' E 011°03'816.9
2019-Nov-01 23:00N 58°03' E 010°57'917.1
2019-Nov-01 22:30N 58°11' E 010°51'816.5
2019-Nov-01 22:00N 58°19' E 010°46'  

Dump ship's entire track history